CYBWCYXC

Guest
Details From CYBW - Calgary Springbank
To CYXC - CANADIAN ROCKIES INTL
Flight Number -
Tags decoded
Created
Modified
Stats Distance 111 nm / 205 km
Max Altitude 0 ft / 0 m
Waypoints 5
Social Downloads 0
Likes 0
Share VATSIM

Download

Looking for another format? Having issues loading an existing format? Contact us
Advertisement - Login to hide

Notes

Requested: CYBW FW6 CONER SX XC CYXC Unmatched points: FW6

Route

CYBW CONER SX XC CYXC

ID Type Via Altitude Latitude Longitude Leg Dist Tot Dist Heading (true) Name
O CYBW APT - 0 ft / 0 m 51.11176˚ -114.37654˚ - 0 nm - Calgary Springbank
CONER FIX - 0 ft / 0 m 50.16556˚ -115.24944˚ 65 nm 65 nm 211° / 210° -
SX NDB - 0 ft / 0 m 49.95492˚ -115.79233˚ 24 nm 90 nm 239° / 239° SKOOKUM NDB
XC NDB - 0 ft / 0 m 49.68333˚ -115.78333˚ 16 nm 106 nm 179° / 179° CRANBROOK NDB
O CYXC APT - 0 ft / 0 m 49.61212˚ -115.78205˚ 4 nm 110 nm 179° / 179° CANADIAN ROCKIES INTL

Altitude Profile

Advertisement - Login to hide

CYBW

Details ICAO CYBW (YBW)
Name Calgary Springbank
Region Canada
Timezone America/Edmonton (UTC-7.0)
Stats Elevation 3,937 ft / 1,200 m (AMSL)
Location 51.111765° -114.376537°
Runways 2
Magnetic Variation 14.238° E

METAR

CYBW 120600Z AUTO 27003KT 9SM CLR 02/M05 A3014 RMK SLP251

Decode

TAF

TAF CYBW 112340Z 1200/1205 30005KT P6SM SCT300 RMK FCST BASED ON AUTO OBS. NXT FCST WILL BE ISSUED AT 121245Z

Decode

Departure Runways

ID Width Length Bearing (true) Bearing (mag) Surface Threshold Offset Overrun Length
07 100 ft / 30 m 3,389 ft / 1,033 m 89.99° 75.75° Asphalt 0 ft / 0 m 0 ft / 0 m
16 75 ft / 23 m 3,083 ft / 940 m 180.71° 166.47° Asphalt 0 ft / 0 m 0 ft / 0 m
25 100 ft / 30 m 3,389 ft / 1,033 m 270.01° 255.77° Asphalt 0 ft / 0 m 0 ft / 0 m
34 75 ft / 23 m 3,083 ft / 940 m 0.71° 346.47° Asphalt 0 ft / 0 m 0 ft / 0 m

CYXC

Details ICAO CYXC (YXC)
Name CANADIAN ROCKIES INTL
Region Canada
Timezone America/Edmonton (UTC-7.0)
Stats Elevation 3,084 ft / 940 m (AMSL)
Location 49.612121° -115.782055°
Runways 1
Magnetic Variation 14.456° E

METAR

CYXC 120600Z CCB VRB04KT 5SM BR OVC005 M08/M09 A3057 RMK SC8 SLP410

Decode

TAF

TAF CYXC 120638Z 1207/1219 VRB03KT 2SM -SN BR OVC003 TEMPO 1207/1219 P6SM NSW OVC007 PROB30 1208/1219 1/4SM FZFG VV001 RMK NXT FCST BY 121300Z

Decode

Destination Runways

ID Width Length Bearing (true) Bearing (mag) Surface Threshold Offset Overrun Length
16 150 ft / 46 m 8,000 ft / 2,438 m 179.16° 164.70° Asphalt 780 ft / 238 m 0 ft / 0 m
34 150 ft / 46 m 8,000 ft / 2,438 m 359.16° 344.70° Asphalt 0 ft / 0 m 0 ft / 0 m

Approach Navaids

Runway Type Ident Frequency Range Bearing (true) Bearing (mag) Slope Elevation
16 Localiser IXC 110.30 MHz 18 nm / 33 km 179.82° 165.36° - 3,058 ft / 932 m (AMSL)
16 Glidescope IXC 110.30 MHz 10 nm / 19 km 179.16° 164.70° 3.00° 3,015 ft / 919 m (AMSL)

Popular Alternatives